createdAt,value
2019-03-27T00:00:50.179Z,0.55
2019-03-27T00:03:20.626Z,0.54
2019-03-27T00:05:51.465Z,0.55
2019-03-27T00:08:22.202Z,0.57
2019-03-27T00:10:52.727Z,0.54
2019-03-27T00:26:37.226Z,0.41
2019-03-27T00:29:07.905Z,0.44
2019-03-27T00:31:38.244Z,0.42
2019-03-27T00:34:08.727Z,0.36
2019-03-27T00:36:40.362Z,0.37
2019-03-27T00:39:11.329Z,0.34
2019-03-27T00:41:41.705Z,0.32
2019-03-27T00:44:12.334Z,0.28
2019-03-27T00:46:42.965Z,0.22
2019-03-27T00:49:13.342Z,0.30
2019-03-27T00:51:44.310Z,0.20
2019-03-27T00:54:14.863Z,0.20
2019-03-27T00:56:45.475Z,0.20
2019-03-27T00:59:19.105Z,0.17
2019-03-27T01:01:48.271Z,0.17
2019-03-27T01:04:19.064Z,0.10
2019-03-27T01:06:51.134Z,0.12
2019-03-27T01:09:22.065Z,0.17
2019-03-27T01:11:52.682Z,0.10
2019-03-27T01:14:23.173Z,0.16
2019-03-27T01:16:53.805Z,0.15
2019-03-27T01:19:24.290Z,0.16
2019-03-27T01:21:55.259Z,0.11
2019-03-27T01:24:25.657Z,-0.25
2019-03-27T01:26:56.302Z,-0.31
2019-03-27T01:29:27.103Z,-0.24
2019-03-27T01:31:57.700Z,-0.19
2019-03-27T01:34:28.275Z,-0.21
2019-03-27T01:36:58.604Z,-0.17
2019-03-27T01:39:29.058Z,-0.22
2019-03-27T01:41:59.819Z,-0.26
2019-03-27T01:44:30.923Z,-0.21
2019-03-27T01:47:01.302Z,-0.29
2019-03-27T01:49:31.833Z,-0.38
2019-03-27T01:52:02.208Z,-0.48
2019-03-27T01:54:32.848Z,-0.62
2019-03-27T01:57:04.448Z,-0.52
2019-03-27T01:59:34.918Z,-0.59
2019-03-27T02:02:05.274Z,-0.69
2019-03-27T02:04:35.832Z,-0.60
2019-03-27T02:07:06.796Z,-0.57
2019-03-27T02:09:39.141Z,-0.46
2019-03-27T02:12:09.784Z,-0.43
2019-03-27T02:14:40.586Z,-0.46
2019-03-27T02:17:11.105Z,-0.44
2019-03-27T02:19:41.462Z,-0.52
2019-03-27T02:22:12.261Z,-0.60
2019-03-27T02:24:42.847Z,-0.53
2019-03-27T02:27:13.485Z,-0.61
2019-03-27T02:29:43.851Z,-0.56
2019-03-27T02:32:14.260Z,-0.68
2019-03-27T02:34:44.637Z,-0.66
2019-03-27T02:37:15.797Z,-0.64
2019-03-27T02:39:46.306Z,-0.59
2019-03-27T02:42:16.660Z,-0.43
2019-03-27T02:44:47.369Z,-0.46
2019-03-27T02:47:18.006Z,-0.47
2019-03-27T02:49:48.344Z,-0.65
2019-03-27T02:52:18.752Z,-0.71
2019-03-27T02:54:49.298Z,-0.81
2019-03-27T02:57:19.744Z,-0.67
2019-03-27T02:59:50.262Z,-0.61
2019-03-27T03:02:20.874Z,-0.65
2019-03-27T03:04:51.417Z,-0.61
2019-03-27T03:07:22.091Z,-0.67
2019-03-27T03:09:52.710Z,-0.64
2019-03-27T03:12:23.235Z,-0.54
2019-03-27T03:14:53.652Z,-0.50
2019-03-27T03:17:24.028Z,-0.59
2019-03-27T03:19:54.774Z,-0.59
2019-03-27T03:22:25.193Z,-0.62
2019-03-27T03:24:55.814Z,-1.04
2019-03-27T03:27:26.344Z,-1.02
2019-03-27T03:29:57.045Z,-1.03
2019-03-27T03:32:27.538Z,-0.92
2019-03-27T03:34:58.006Z,-0.96
2019-03-27T03:37:28.467Z,-1.05
2019-03-27T03:39:58.866Z,-1.22
2019-03-27T03:42:29.933Z,-1.37
2019-03-27T03:45:00.944Z,-1.40
2019-03-27T03:47:32.488Z,-1.49
2019-03-27T03:50:03.303Z,-1.40
2019-03-27T03:52:33.858Z,-1.45
2019-03-27T03:55:04.661Z,-1.47
2019-03-27T03:57:36.650Z,-1.47
2019-03-27T04:00:07.800Z,-1.42
2019-03-27T04:02:39.049Z,-1.38
2019-03-27T04:05:11.229Z,-1.41
2019-03-27T04:07:41.796Z,-1.37
2019-03-27T04:10:12.429Z,-1.46
2019-03-27T04:12:42.802Z,-1.45
2019-03-27T04:15:13.400Z,-1.50
2019-03-27T04:17:44.018Z,-1.53
2019-03-27T04:20:14.554Z,-1.50
2019-03-27T04:22:45.267Z,-1.52
2019-03-27T04:25:15.727Z,-1.54
2019-03-27T04:27:46.261Z,-1.48
2019-03-27T04:30:16.961Z,-1.55
2019-03-27T04:32:47.391Z,-1.48
2019-03-27T04:35:18.122Z,-1.42
2019-03-27T04:37:48.739Z,-1.46
2019-03-27T04:40:19.697Z,-1.37
2019-03-27T04:42:50.200Z,-1.39
2019-03-27T04:45:20.773Z,-1.36
2019-03-27T04:47:51.249Z,-1.36
2019-03-27T04:50:22.037Z,-1.31
2019-03-27T04:52:52.494Z,-1.33
2019-03-27T04:55:22.928Z,-1.33
2019-03-27T04:57:53.628Z,-1.21
2019-03-27T05:00:24.098Z,-1.19
2019-03-27T05:02:54.441Z,-1.11
2019-03-27T05:05:24.791Z,-1.07
2019-03-27T05:07:55.284Z,-1.04
2019-03-27T05:10:25.726Z,-0.96
2019-03-27T05:12:56.239Z,-0.94
2019-03-27T05:15:26.682Z,-0.91
2019-03-27T05:17:57.303Z,-0.89
2019-03-27T05:20:28.834Z,-0.86
2019-03-27T05:22:59.308Z,-0.97
2019-03-27T05:25:30.358Z,-0.88
2019-03-27T05:28:00.728Z,-0.88
2019-03-27T05:30:31.274Z,-0.71
2019-03-27T05:33:02.221Z,-0.61
2019-03-27T05:35:32.842Z,-0.62
2019-03-27T05:39:48.213Z,-0.39
2019-03-27T05:42:21.218Z,-0.24
2019-03-27T05:44:53.429Z,-0.11
2019-03-27T05:47:25.538Z,0.01
2019-03-27T05:49:57.745Z,0.12
2019-03-27T05:52:29.685Z,0.23
2019-03-27T05:55:01.603Z,0.34
2019-03-27T05:57:33.837Z,0.48
2019-03-27T06:00:06.298Z,0.55
2019-03-27T06:02:38.107Z,0.73
2019-03-27T06:05:10.241Z,0.96
2019-03-27T06:07:42.348Z,0.94
2019-03-27T06:10:16.371Z,1.15
2019-03-27T06:12:48.008Z,1.22
2019-03-27T06:15:20.529Z,1.28
2019-03-27T06:17:52.331Z,1.37
2019-03-27T06:20:24.290Z,1.58
2019-03-27T06:22:57.631Z,1.81
2019-03-27T06:25:29.569Z,2.00
2019-03-27T06:28:02.182Z,1.99
2019-03-27T06:30:34.072Z,2.49
2019-03-27T06:33:07.622Z,2.55
2019-03-27T06:35:39.982Z,3.56
2019-03-27T06:38:11.946Z,5.10
2019-03-27T06:40:44.031Z,5.45
2019-03-27T06:43:16.110Z,5.32
2019-03-27T06:45:48.208Z,5.92
2019-03-27T06:48:26.133Z,7.32
2019-03-27T06:50:53.780Z,7.93
2019-03-27T06:53:25.688Z,7.67
2019-03-27T06:55:57.607Z,7.12
2019-03-27T06:58:29.566Z,8.75
2019-03-27T07:01:01.487Z,9.52
2019-03-27T07:03:33.666Z,10.41
2019-03-27T07:06:05.782Z,10.46
2019-03-27T07:08:37.935Z,9.15
2019-03-27T07:11:10.018Z,8.98
2019-03-27T07:13:42.220Z,9.48
2019-03-27T07:16:14.420Z,9.92
2019-03-27T07:18:46.916Z,10.67
2019-03-27T07:21:18.989Z,10.42
2019-03-27T07:23:50.870Z,10.56
2019-03-27T07:26:23.219Z,11.99
2019-03-27T07:28:55.187Z,10.86
2019-03-27T07:31:28.380Z,9.44
2019-03-27T07:34:00.351Z,8.43
2019-03-27T07:36:32.298Z,7.70
2019-03-27T07:39:11.153Z,7.67
2019-03-27T07:41:39.391Z,7.69
2019-03-27T07:44:11.442Z,7.37
2019-03-27T07:46:43.721Z,7.97
2019-03-27T07:49:17.206Z,7.89
2019-03-27T07:51:49.213Z,8.08
2019-03-27T07:54:21.347Z,8.16
2019-03-27T07:56:53.487Z,9.21
2019-03-27T07:59:25.334Z,11.22
2019-03-27T08:04:27.534Z,12.34
2019-03-27T08:06:59.963Z,12.17
2019-03-27T08:09:32.044Z,12.96
2019-03-27T08:12:04.587Z,14.44
2019-03-27T08:14:36.868Z,13.99
2019-03-27T08:17:09.305Z,13.41
2019-03-27T08:19:41.345Z,14.09
2019-03-27T08:22:13.387Z,14.05
2019-03-27T08:24:45.491Z,13.74
2019-03-27T08:27:17.503Z,13.66
2019-03-27T08:29:49.764Z,13.45
2019-03-27T08:32:21.899Z,14.40
2019-03-27T08:34:54.213Z,14.13
2019-03-27T08:37:26.056Z,14.62
2019-03-27T08:39:58.181Z,13.38
2019-03-27T08:42:30.222Z,14.27
2019-03-27T08:45:03.815Z,14.73
2019-03-27T08:47:36.276Z,13.42
2019-03-27T08:50:09.939Z,13.42
2019-03-27T08:52:42.920Z,13.85
2019-03-27T08:55:15.381Z,13.70
2019-03-27T08:57:47.583Z,14.59
2019-03-27T09:00:24.292Z,13.24
2019-03-27T09:02:56.245Z,14.09
2019-03-27T09:05:28.126Z,14.06
2019-03-27T09:08:00.442Z,12.78
2019-03-27T09:10:32.526Z,13.00
2019-03-27T09:13:04.924Z,13.11
2019-03-27T09:15:37.200Z,13.03
2019-03-27T09:18:09.301Z,13.66
2019-03-27T09:20:41.294Z,13.17
2019-03-27T09:23:14.253Z,11.90
2019-03-27T09:25:46.224Z,12.77
2019-03-27T09:28:18.148Z,13.09
2019-03-27T09:30:50.137Z,12.63
2019-03-27T09:33:22.136Z,12.12
2019-03-27T09:35:54.259Z,11.69
2019-03-27T09:38:26.298Z,12.62
2019-03-27T09:40:58.353Z,12.58
2019-03-27T09:43:30.474Z,12.43
2019-03-27T09:46:02.367Z,12.92
2019-03-27T09:48:34.316Z,13.23
2019-03-27T09:51:06.258Z,13.44
2019-03-27T09:53:38.486Z,13.11
2019-03-27T09:56:19.051Z,13.44
2019-03-27T09:58:44.182Z,12.98
2019-03-27T10:01:16.003Z,14.20
2019-03-27T10:03:48.059Z,13.30
2019-03-27T10:06:20.130Z,13.60
2019-03-27T10:08:52.261Z,14.66
2019-03-27T10:11:24.178Z,13.59
2019-03-27T10:13:56.345Z,13.45
2019-03-27T10:16:28.424Z,14.17
2019-03-27T10:19:00.404Z,15.25
2019-03-27T10:21:32.455Z,14.32
2019-03-27T10:24:04.672Z,14.32
2019-03-27T10:26:36.627Z,14.32
2019-03-27T10:29:08.498Z,14.41
2019-03-27T10:31:40.407Z,14.55
2019-03-27T10:34:12.538Z,15.42
2019-03-27T10:36:45.318Z,15.22
2019-03-27T10:39:17.422Z,14.99
2019-03-27T10:41:49.551Z,14.95
2019-03-27T10:44:21.566Z,14.86
2019-03-27T10:46:53.749Z,15.65
2019-03-27T10:49:25.722Z,15.18
2019-03-27T10:51:57.825Z,15.77
2019-03-27T10:54:29.952Z,15.16
2019-03-27T10:57:02.244Z,15.94
2019-03-27T10:59:34.661Z,15.01
2019-03-27T11:02:07.714Z,15.27
2019-03-27T11:04:39.680Z,15.70
2019-03-27T11:07:11.642Z,15.87
2019-03-27T11:09:43.694Z,15.57
2019-03-27T11:12:15.890Z,15.68
2019-03-27T11:14:47.916Z,14.54
2019-03-27T11:17:19.940Z,15.73
2019-03-27T11:19:51.791Z,15.64
2019-03-27T11:22:23.636Z,15.12
2019-03-27T11:24:55.635Z,16.09
2019-03-27T11:27:27.593Z,15.75
2019-03-27T11:29:59.889Z,15.20
2019-03-27T11:32:31.952Z,15.27
2019-03-27T11:35:04.561Z,16.21
2019-03-27T11:37:37.809Z,16.23
2019-03-27T11:40:10.391Z,15.01
2019-03-27T11:42:42.475Z,15.83
2019-03-27T11:45:14.843Z,15.59
2019-03-27T11:47:46.882Z,15.02
2019-03-27T11:50:19.137Z,15.65
2019-03-27T11:52:51.152Z,15.94
2019-03-27T11:55:23.215Z,15.78
2019-03-27T11:57:55.196Z,16.76
2019-03-27T12:00:27.147Z,16.73
2019-03-27T12:02:59.360Z,15.99
2019-03-27T12:05:31.744Z,16.26
2019-03-27T12:08:04.976Z,15.88
2019-03-27T12:10:36.805Z,16.43
2019-03-27T12:13:09.706Z,15.44
2019-03-27T12:15:43.915Z,14.55
2019-03-27T12:18:17.125Z,15.04
2019-03-27T12:20:58.849Z,16.02
2019-03-27T12:23:23.262Z,16.73
2019-03-27T12:25:55.592Z,17.61
2019-03-27T12:28:28.613Z,18.04
2019-03-27T12:31:01.138Z,16.69
2019-03-27T12:33:33.265Z,16.61
2019-03-27T12:36:05.356Z,15.73
2019-03-27T12:38:37.402Z,15.63
2019-03-27T12:41:09.506Z,16.14
2019-03-27T12:43:41.635Z,17.64
2019-03-27T12:46:13.665Z,16.05
2019-03-27T12:48:45.905Z,14.67
2019-03-27T12:51:18.152Z,14.61
2019-03-27T12:53:50.124Z,14.19
2019-03-27T12:56:22.148Z,13.99
2019-03-27T12:58:54.347Z,13.40
2019-03-27T13:01:26.538Z,13.22
2019-03-27T13:03:58.663Z,13.22
2019-03-27T13:06:30.902Z,13.09
2019-03-27T13:09:03.574Z,12.48
2019-03-27T13:11:36.863Z,12.72
2019-03-27T13:14:09.323Z,12.39
2019-03-27T13:16:42.707Z,12.54
2019-03-27T13:19:14.903Z,12.78
2019-03-27T13:21:47.060Z,12.82
2019-03-27T13:24:19.009Z,12.50
2019-03-27T13:26:51.213Z,12.81
2019-03-27T13:29:23.402Z,12.76
2019-03-27T13:31:55.613Z,12.71
2019-03-27T13:34:27.636Z,13.12
2019-03-27T13:36:59.950Z,12.80
2019-03-27T13:39:31.821Z,12.41
2019-03-27T13:42:03.997Z,12.53
2019-03-27T13:44:37.483Z,12.52
2019-03-27T13:47:10.176Z,12.65
2019-03-27T13:49:42.567Z,12.69
2019-03-27T13:52:14.513Z,12.55
2019-03-27T13:54:46.609Z,12.78
2019-03-27T13:57:18.614Z,12.41
2019-03-27T13:59:51.065Z,12.31
2019-03-27T14:02:22.942Z,12.35
2019-03-27T14:04:54.998Z,12.35
2019-03-27T14:07:27.238Z,12.51
2019-03-27T14:09:59.323Z,12.09
2019-03-27T14:12:31.442Z,11.87
2019-03-27T14:15:03.648Z,12.04
2019-03-27T14:17:35.495Z,11.95
2019-03-27T14:20:08.546Z,11.91
2019-03-27T14:22:40.699Z,12.06
2019-03-27T14:25:13.142Z,12.05
2019-03-27T14:27:46.098Z,11.93
2019-03-27T14:30:38.893Z,11.79
2019-03-27T14:33:11.135Z,11.88
2019-03-27T14:35:43.145Z,11.84
2019-03-27T14:38:15.096Z,11.86
2019-03-27T14:40:47.105Z,11.76
2019-03-27T14:43:19.161Z,11.83
2019-03-27T14:45:51.828Z,11.71
2019-03-27T14:48:23.861Z,11.47
2019-03-27T14:50:57.148Z,11.44
2019-03-27T14:53:29.025Z,11.53
2019-03-27T14:56:00.857Z,11.63
2019-03-27T14:58:33.450Z,11.61
2019-03-27T15:01:05.969Z,11.37
2019-03-27T15:03:39.222Z,10.97
2019-03-27T15:06:12.117Z,11.15
2019-03-27T15:08:44.343Z,10.93
2019-03-27T15:11:16.377Z,10.93
2019-03-27T15:13:48.811Z,10.98
2019-03-27T15:16:20.865Z,10.96
2019-03-27T15:18:53.032Z,11.13
2019-03-27T15:21:25.222Z,11.05
2019-03-27T15:23:57.321Z,11.24
2019-03-27T15:26:30.823Z,11.36
2019-03-27T15:29:02.994Z,11.35
2019-03-27T15:31:34.979Z,11.17
2019-03-27T15:34:06.979Z,11.20
2019-03-27T15:36:39.100Z,11.02
2019-03-27T15:39:12.237Z,11.10
2019-03-27T15:41:44.634Z,11.17
2019-03-27T15:44:17.650Z,11.06
2019-03-27T15:46:49.551Z,10.98
2019-03-27T15:49:21.463Z,10.70
2019-03-27T15:51:53.633Z,10.56
2019-03-27T15:54:25.974Z,10.65
2019-03-27T15:56:58.316Z,10.90
2019-03-27T15:59:30.384Z,10.83
2019-03-27T16:02:02.823Z,10.71
2019-03-27T16:04:35.051Z,10.75
2019-03-27T16:07:07.526Z,10.72
2019-03-27T16:09:39.944Z,10.49
2019-03-27T16:12:12.229Z,10.57
2019-03-27T16:14:44.452Z,10.56
2019-03-27T16:17:16.579Z,10.47
2019-03-27T16:19:48.814Z,10.45
2019-03-27T16:22:21.148Z,10.48
2019-03-27T16:24:53.035Z,10.49
2019-03-27T16:27:25.476Z,10.43
2019-03-27T16:29:58.628Z,10.46
2019-03-27T16:32:30.506Z,10.34
2019-03-27T16:35:02.655Z,10.30
2019-03-27T16:37:34.731Z,10.44
2019-03-27T16:40:07.515Z,10.34
2019-03-27T16:42:41.347Z,10.25
2019-03-27T16:45:13.491Z,10.31
2019-03-27T16:47:45.470Z,10.16
2019-03-27T16:50:18.198Z,10.29
2019-03-27T16:53:02.994Z,10.30
2019-03-27T16:55:24.507Z,10.25
2019-03-27T16:57:56.854Z,10.13
2019-03-27T17:00:29.281Z,10.15
2019-03-27T17:03:01.479Z,10.15
2019-03-27T17:05:33.660Z,10.24
2019-03-27T17:08:05.850Z,10.15
2019-03-27T17:10:38.265Z,10.14
2019-03-27T17:13:10.382Z,10.17
2019-03-27T17:15:42.755Z,10.14
2019-03-27T17:18:14.954Z,10.16
2019-03-27T17:20:47.037Z,10.08
2019-03-27T17:23:18.901Z,10.12
2019-03-27T17:25:49.564Z,10.04
2019-03-27T17:28:20.902Z,10.09
2019-03-27T17:30:51.586Z,9.99
2019-03-27T17:33:23.353Z,9.88
2019-03-27T17:35:54.073Z,9.83
2019-03-27T17:38:25.306Z,9.82
2019-03-27T17:40:56.026Z,9.76
2019-03-27T17:43:26.469Z,9.73
2019-03-27T17:45:57.243Z,9.80
2019-03-27T17:48:27.609Z,9.77
2019-03-27T17:50:58.202Z,9.80
2019-03-27T17:53:31.977Z,9.80
2019-03-27T17:56:00.820Z,9.81
2019-03-27T17:58:31.794Z,9.74
2019-03-27T18:01:03.682Z,9.68
2019-03-27T18:03:34.181Z,9.61
2019-03-27T18:06:06.961Z,9.63
2019-03-27T18:08:37.782Z,9.58
2019-03-27T18:11:08.354Z,9.55
2019-03-27T18:13:38.915Z,9.57
2019-03-27T18:16:10.829Z,9.46
2019-03-27T18:18:42.880Z,9.49
2019-03-27T18:21:15.119Z,9.40
2019-03-27T18:23:47.568Z,9.46
2019-03-27T18:26:19.679Z,9.50
2019-03-27T18:28:52.122Z,9.56
2019-03-27T18:31:24.162Z,9.41
2019-03-27T18:33:56.438Z,9.43
2019-03-27T18:36:28.504Z,9.48
2019-03-27T18:39:00.873Z,9.47
2019-03-27T18:41:34.785Z,9.44
2019-03-27T18:44:06.920Z,9.57
2019-03-27T18:46:39.099Z,9.56
2019-03-27T18:49:12.155Z,9.55
2019-03-27T18:51:44.624Z,9.54
2019-03-27T18:54:16.779Z,9.58
2019-03-27T18:56:48.967Z,9.60
2019-03-27T18:59:20.914Z,9.62
2019-03-27T19:01:52.951Z,9.59
2019-03-27T19:04:25.357Z,9.53
2019-03-27T19:06:58.867Z,9.56
2019-03-27T19:09:29.807Z,9.52
2019-03-27T19:12:02.011Z,9.48
2019-03-27T19:14:35.256Z,9.55
2019-03-27T19:17:07.583Z,9.49
2019-03-27T19:19:40.281Z,9.52
2019-03-27T19:22:12.578Z,9.56
2019-03-27T19:24:44.595Z,9.49
2019-03-27T19:27:16.711Z,9.50
2019-03-27T19:29:49.007Z,9.53
2019-03-27T19:32:21.161Z,9.46
2019-03-27T19:34:54.421Z,9.45
2019-03-27T19:37:26.333Z,9.38
2019-03-27T19:39:56.891Z,9.38
2019-03-27T19:42:27.471Z,9.36
2019-03-27T19:44:58.103Z,9.41
2019-03-27T19:47:28.785Z,9.37
2019-03-27T19:49:59.104Z,9.29
2019-03-27T19:52:29.619Z,9.24
2019-03-27T19:55:00.635Z,9.21
2019-03-27T19:57:31.414Z,9.25
2019-03-27T20:00:01.889Z,9.28
2019-03-27T20:02:37.360Z,9.26
2019-03-27T20:05:08.479Z,9.28
2019-03-27T20:07:39.061Z,9.33
2019-03-27T20:10:11.049Z,9.31
2019-03-27T20:12:42.802Z,9.32
2019-03-27T20:15:13.735Z,9.31
2019-03-27T20:17:44.689Z,9.25
2019-03-27T20:20:15.521Z,9.18
2019-03-27T20:22:46.178Z,9.24
2019-03-27T20:25:16.869Z,9.26
2019-03-27T20:27:50.968Z,9.18
2019-03-27T20:30:21.246Z,9.19
2019-03-27T20:32:52.065Z,9.19
2019-03-27T20:35:23.034Z,9.14
2019-03-27T20:37:53.867Z,9.19
2019-03-27T20:40:27.511Z,9.16
2019-03-27T20:42:57.445Z,9.12
2019-03-27T20:45:28.277Z,9.09
2019-03-27T20:47:58.894Z,9.10
2019-03-27T20:50:29.533Z,8.95
2019-03-27T20:53:00.380Z,9.01
2019-03-27T20:55:31.232Z,9.03
2019-03-27T20:58:02.155Z,8.91
2019-03-27T21:00:33.377Z,8.75
2019-03-27T21:03:04.118Z,8.76
2019-03-27T21:05:35.173Z,8.71
2019-03-27T21:08:06.168Z,8.76
2019-03-27T21:10:36.848Z,8.75
2019-03-27T21:13:07.795Z,8.68
2019-03-27T21:15:39.286Z,8.74
2019-03-27T21:18:09.817Z,8.69
2019-03-27T21:20:40.508Z,8.79
2019-03-27T21:23:11.042Z,8.73
2019-03-27T21:25:43.869Z,8.73
2019-03-27T21:28:14.462Z,8.70
2019-03-27T21:30:45.201Z,8.69
2019-03-27T21:33:15.543Z,8.68
2019-03-27T21:35:46.100Z,8.71
2019-03-27T21:38:16.716Z,8.63
2019-03-27T21:40:48.734Z,8.67
2019-03-27T21:43:20.942Z,8.62
2019-03-27T21:45:53.336Z,8.68
2019-03-27T21:48:25.800Z,8.63
2019-03-27T21:50:57.838Z,8.65
2019-03-27T21:53:30.051Z,8.64
2019-03-27T21:56:01.899Z,8.61
2019-03-27T21:58:34.188Z,8.62
2019-03-27T22:01:06.952Z,8.56
2019-03-27T22:03:39.095Z,8.52
2019-03-27T22:06:11.370Z,8.54
2019-03-27T22:08:43.517Z,8.59
2019-03-27T22:11:15.649Z,8.61
2019-03-27T22:13:48.882Z,8.55
2019-03-27T22:16:20.978Z,8.57
2019-03-27T22:18:53.488Z,8.59
2019-03-27T22:21:26.995Z,8.54
2019-03-27T22:24:00.231Z,8.55
2019-03-27T22:26:32.581Z,8.56
2019-03-27T22:29:04.631Z,8.54
2019-03-27T22:31:36.965Z,8.55
2019-03-27T22:34:09.092Z,8.51
2019-03-27T22:36:40.021Z,8.44
2019-03-27T22:39:10.684Z,8.43
2019-03-27T22:41:41.263Z,8.47
2019-03-27T22:44:11.627Z,8.39
2019-03-27T22:46:42.285Z,8.44
2019-03-27T22:49:13.907Z,8.47
2019-03-27T22:51:44.556Z,8.47
2019-03-27T22:54:15.415Z,8.49
2019-03-27T22:56:46.929Z,8.47
2019-03-27T22:59:17.295Z,8.43
2019-03-27T23:01:47.924Z,8.40
2019-03-27T23:04:18.652Z,8.35
2019-03-27T23:06:49.489Z,8.35
2019-03-27T23:09:20.071Z,8.36
2019-03-27T23:11:50.688Z,8.32
2019-03-27T23:14:21.373Z,8.37
2019-03-27T23:16:51.992Z,8.32
2019-03-27T23:19:22.803Z,8.35
2019-03-27T23:21:54.996Z,8.34
2019-03-27T23:24:25.412Z,8.39
2019-03-27T23:26:57.670Z,8.40
2019-03-27T23:29:30.934Z,8.40
2019-03-27T23:32:03.307Z,8.40
2019-03-27T23:34:35.457Z,8.37
2019-03-27T23:37:08.044Z,8.33
2019-03-27T23:39:38.809Z,8.20
2019-03-27T23:42:09.381Z,8.31
2019-03-27T23:44:40.128Z,8.19
2019-03-27T23:47:10.700Z,8.26
2019-03-27T23:49:41.747Z,8.18
2019-03-27T23:52:12.384Z,8.29
2019-03-27T23:54:42.848Z,8.25
2019-03-27T23:57:14.746Z,8.26
2019-03-27T23:59:45.366Z,8.21
